Time;durP1;ratioP1;P1;durP2;ratioP2;P2;SDS_P1;SDS_P2;PMS_P1;PMS_P2;Temp;Humidity;BMP_temperature;BMP_pressure;BME280_temperature;BME280_humidity;BME280_pressure;Samples;Min_cycle;Max_cycle;Signal;HPM_P1;HPM_P2
2022/06/04 00:00:10;;;;;;;11.00;7.93;;;;;;;;;;5089998;27;20028;-66
2022/06/04 00:02:40;;;;;;;9.20;7.68;;;;;;;;;;5079515;28;20035;-66
2022/06/04 00:05:08;;;;;;;10.07;6.93;;;;;;;;;;5084375;28;20035;-66
2022/06/04 00:07:33;;;;;;;11.27;7.45;;;;;;;;;;5077020;28;20043;-66
2022/06/04 00:15:29;;;;;;;8.75;7.07;;;;;;;;;;5086923;28;20618;-66
2022/06/04 00:17:55;;;;;;;9.57;6.55;;;;;;;;;;5087590;28;20452;-66
2022/06/04 00:20:21;;;;;;;9.35;7.13;;;;;;;;;;5085737;28;20556;-66
2022/06/04 00:22:46;;;;;;;8.23;7.25;;;;;;;;;;5076211;28;20043;-66
2022/06/04 00:25:14;;;;;;;9.15;7.20;;;;;;;;;;5086753;28;20039;-66
2022/06/04 00:27:39;;;;;;;9.98;7.70;;;;;;;;;;5084217;28;20436;-66
2022/06/04 00:30:06;;;;;;;9.77;7.53;;;;;;;;;;5086825;28;20039;-66
2022/06/04 00:32:36;;;;;;;11.38;6.82;;;;;;;;;;5086286;28;20106;-66
2022/06/04 00:35:04;;;;;;;9.32;7.68;;;;;;;;;;5086080;28;20032;-66
2022/06/04 00:37:34;;;;;;;10.25;7.28;;;;;;;;;;5087114;28;20081;-66
2022/06/04 00:40:00;;;;;;;10.10;6.88;;;;;;;;;;5086626;28;20062;-66
2022/06/04 00:42:25;;;;;;;9.57;7.10;;;;;;;;;;5088454;28;20555;-66
2022/06/04 00:45:21;;;;;;;10.38;7.22;;;;;;;;;;5084713;28;20039;-66
2022/06/04 00:47:48;;;;;;;9.32;7.38;;;;;;;;;;5085633;28;20107;-66
2022/06/04 00:50:16;;;;;;;9.57;7.00;;;;;;;;;;5084331;28;20622;-66
2022/06/04 00:52:43;;;;;;;10.15;7.40;;;;;;;;;;5074493;28;20539;-66
2022/06/04 00:55:09;;;;;;;9.13;7.25;;;;;;;;;;5088095;28;20109;-66
2022/06/04 00:58:06;;;;;;;11.40;8.23;;;;;;;;;;5086299;28;20024;-66
2022/06/04 01:00:40;;;;;;;9.27;7.15;;;;;;;;;;5055037;28;20040;-66
2022/06/04 01:03:11;;;;;;;9.82;7.25;;;;;;;;;;5063166;28;20040;-66
2022/06/04 01:05:55;;;;;;;9.10;7.13;;;;;;;;;;5065631;28;20704;-66
2022/06/04 01:08:43;;;;;;;10.15;7.40;;;;;;;;;;5063014;28;20044;-66
2022/06/04 01:11:32;;;;;;;10.10;7.50;;;;;;;;;;5065052;28;20039;-66
2022/06/04 01:14:29;;;;;;;12.27;6.78;;;;;;;;;;5075693;27;20040;-66
2022/06/04 01:16:57;;;;;;;9.90;7.07;;;;;;;;;;5073982;28;20028;-66
2022/06/04 01:19:40;;;;;;;9.20;6.47;;;;;;;;;;5050212;28;20720;-66
2022/06/04 01:22:06;;;;;;;;;;;;;;;;;;5079238;28;20056;-66
2022/06/04 01:25:10;;;;;;;8.63;6.70;;;;;;;;;;5067148;28;19982;-66
2022/06/04 01:27:51;;;;;;;9.52;6.20;;;;;;;;;;5047721;28;20302;-66
2022/06/04 01:30:25;;;;;;;9.15;6.80;;;;;;;;;;5090163;28;20063;-66
2022/06/04 01:33:16;;;;;;;8.20;6.75;;;;;;;;;;5081003;28;20028;-66
2022/06/04 01:35:56;;;;;;;8.50;6.60;;;;;;;;;;5084156;28;20032;-66
2022/06/04 01:38:28;;;;;;;9.38;6.38;;;;;;;;;;5086637;28;20505;-66
2022/06/04 01:41:05;;;;;;;7.78;6.20;;;;;;;;;;5085175;28;20036;-66
2022/06/04 01:43:36;;;;;;;7.40;5.45;;;;;;;;;;5086921;28;20509;-66
2022/06/04 01:46:16;;;;;;;8.75;6.30;;;;;;;;;;5090672;28;20078;-66
2022/06/04 01:48:44;;;;;;;8.35;5.40;;;;;;;;;;5089845;28;20030;-66
2022/06/04 01:51:12;;;;;;;7.53;5.65;;;;;;;;;;5062731;28;20032;-66
2022/06/04 01:53:40;;;;;;;7.88;5.70;;;;;;;;;;5065497;28;20102;-66
2022/06/04 01:56:15;;;;;;;7.40;5.57;;;;;;;;;;5070781;28;20480;-66
2022/06/04 01:58:50;;;;;;;8.55;5.60;;;;;;;;;;5065602;28;20032;-66
2022/06/04 02:01:20;;;;;;;9.68;5.20;;;;;;;;;;5070741;28;20093;-66
2022/06/04 02:04:10;;;;;;;6.03;5.15;;;;;;;;;;5069512;28;20265;-66
2022/06/04 02:09:55;;;;;;;8.10;4.82;;;;;;;;;;5079800;28;20055;-66
2022/06/04 02:12:20;;;;;;;8.35;5.32;;;;;;;;;;5087728;28;20026;-66
2022/06/04 02:14:46;;;;;;;7.70;5.47;;;;;;;;;;5091273;28;20420;-66
2022/06/04 02:17:16;;;;;;;11.52;5.97;;;;;;;;;;5088960;28;20031;-66
2022/06/04 02:19:42;;;;;;;7.05;5.45;;;;;;;;;;5077097;28;20031;-66
2022/06/04 02:22:09;;;;;;;7.63;5.32;;;;;;;;;;5086044;28;20024;-66
2022/06/04 02:24:34;;;;;;;6.60;5.43;;;;;;;;;;5085483;28;20032;-66
2022/06/04 02:27:01;;;;;;;6.85;5.47;;;;;;;;;;5090421;28;20451;-66
2022/06/04 02:29:27;;;;;;;9.68;5.65;;;;;;;;;;5097307;28;20032;-66
2022/06/04 02:32:04;;;;;;;12.40;6.60;;;;;;;;;;5098014;28;20036;-66
2022/06/04 02:35:03;;;;;;;10.45;5.47;;;;;;;;;;5101185;28;20039;-65
2022/06/04 02:37:38;;;;;;;8.18;5.68;;;;;;;;;;5099349;28;20027;-66
2022/06/04 02:40:34;;;;;;;7.72;5.28;;;;;;;;;;5090321;28;20029;-66
2022/06/04 02:43:13;;;;;;;11.00;5.18;;;;;;;;;;5083671;28;20040;-66
2022/06/04 02:45:44;;;;;;;7.57;5.10;;;;;;;;;;5087041;28;20038;-66
2022/06/04 02:48:18;;;;;;;6.25;4.70;;;;;;;;;;5087216;28;20568;-66
2022/06/04 02:51:00;;;;;;;6.25;4.53;;;;;;;;;;5095824;27;20631;-66
2022/06/04 02:53:28;;;;;;;6.75;4.50;;;;;;;;;;5090226;28;20035;-66
2022/06/04 02:55:59;;;;;;;8.07;4.60;;;;;;;;;;5084582;28;20181;-66
2022/06/04 02:58:26;;;;;;;6.95;4.78;;;;;;;;;;5078829;28;20028;-66
2022/06/04 03:00:54;;;;;;;7.95;4.75;;;;;;;;;;5098940;28;20035;-66
2022/06/04 03:03:21;;;;;;;6.22;4.70;;;;;;;;;;5096881;28;20027;-66
2022/06/04 03:05:59;;;;;;;6.38;4.57;;;;;;;;;;5088525;28;20032;-66
2022/06/04 03:08:30;;;;;;;8.02;4.53;;;;;;;;;;5082408;28;20032;-66
2022/06/04 03:10:56;;;;;;;6.35;4.40;;;;;;;;;;5087499;28;20127;-66
2022/06/04 03:13:21;;;;;;;5.43;4.25;;;;;;;;;;5095282;28;20111;-66
2022/06/04 03:15:47;;;;;;;6.32;4.45;;;;;;;;;;5090822;28;20023;-66
2022/06/04 03:18:14;;;;;;;6.95;4.93;;;;;;;;;;5083459;28;20401;-66
2022/06/04 03:20:40;;;;;;;10.32;4.97;;;;;;;;;;5088091;28;20060;-66
2022/06/04 03:23:06;;;;;;;6.70;5.15;;;;;;;;;;5082373;28;20028;-66
2022/06/04 03:25:33;;;;;;;6.00;4.45;;;;;;;;;;5085493;28;20116;-66
2022/06/04 03:27:58;;;;;;;8.82;4.97;;;;;;;;;;5088320;28;20027;-66
2022/06/04 03:30:26;;;;;;;7.15;4.68;;;;;;;;;;5089125;28;20016;-66
2022/06/04 03:32:52;;;;;;;7.38;4.95;;;;;;;;;;5086317;28;20078;-66
2022/06/04 03:35:17;;;;;;;7.13;4.85;;;;;;;;;;5088582;28;20476;-66
2022/06/04 03:37:43;;;;;;;5.72;4.40;;;;;;;;;;5085506;28;20354;-66
2022/06/04 03:40:09;;;;;;;8.02;4.63;;;;;;;;;;5081006;28;20036;-66
2022/06/04 03:42:35;;;;;;;5.88;4.55;;;;;;;;;;5085588;28;20023;-66
2022/06/04 03:45:00;;;;;;;6.55;4.65;;;;;;;;;;5088536;28;20025;-66
2022/06/04 03:47:26;;;;;;;6.85;4.55;;;;;;;;;;5086470;28;20135;-66
2022/06/04 03:49:51;;;;;;;6.85;4.30;;;;;;;;;;5088514;28;20032;-66
2022/06/04 03:52:17;;;;;;;7.53;4.50;;;;;;;;;;5082672;28;20033;-66
2022/06/04 03:54:56;;;;;;;6.30;4.28;;;;;;;;;;5086727;28;20013;-66
2022/06/04 03:57:48;;;;;;;7.80;4.32;;;;;;;;;;5089037;28;20016;-66
2022/06/04 04:00:30;;;;;;;9.18;4.80;;;;;;;;;;5087792;28;20039;-66
2022/06/04 04:03:00;;;;;;;6.75;4.30;;;;;;;;;;5087865;28;20035;-66
2022/06/04 04:05:32;;;;;;;7.65;4.35;;;;;;;;;;5099034;28;20036;-66
2022/06/04 04:08:00;;;;;;;5.68;4.43;;;;;;;;;;5088296;28;20044;-66
2022/06/04 04:10:27;;;;;;;8.77;4.60;;;;;;;;;;5087021;28;20501;-66
2022/06/04 04:12:53;;;;;;;8.00;4.10;;;;;;;;;;5090620;28;20103;-66
2022/06/04 04:15:19;;;;;;;8.05;4.10;;;;;;;;;;5090722;28;20091;-66
2022/06/04 04:17:46;;;;;;;8.70;4.07;;;;;;;;;;5087068;28;20035;-66
2022/06/04 04:20:15;;;;;;;7.10;4.55;;;;;;;;;;5087094;28;20040;-66
2022/06/04 04:22:41;;;;;;;6.25;4.20;;;;;;;;;;5082511;28;20135;-66
2022/06/04 04:25:07;;;;;;;6.30;3.90;;;;;;;;;;5087018;28;20515;-65
2022/06/04 04:27:33;;;;;;;4.57;3.78;;;;;;;;;;5083839;28;20052;-66
2022/06/04 04:29:59;;;;;;;8.88;4.10;;;;;;;;;;5087277;28;20669;-66
2022/06/04 04:32:24;;;;;;;5.40;3.67;;;;;;;;;;5087664;28;20036;-66
2022/06/04 04:34:50;;;;;;;6.82;4.03;;;;;;;;;;5088263;28;20417;-66
2022/06/04 04:37:15;;;;;;;5.55;3.72;;;;;;;;;;5086066;28;20058;-66
2022/06/04 04:39:40;;;;;;;6.00;3.90;;;;;;;;;;5084642;28;20024;-66
2022/06/04 04:42:06;;;;;;;6.13;4.03;;;;;;;;;;5074511;28;20047;-66
2022/06/04 04:44:31;;;;;;;8.85;4.70;;;;;;;;;;5087780;28;20108;-65
2022/06/04 04:46:57;;;;;;;35.38;5.07;;;;;;;;;;5080057;28;20036;-66
2022/06/04 04:49:22;;;;;;;4.95;3.75;;;;;;;;;;5087111;28;20028;-66
2022/06/04 04:51:48;;;;;;;9.60;4.20;;;;;;;;;;5080284;28;20409;-66
2022/06/04 04:54:14;;;;;;;7.38;3.92;;;;;;;;;;5085498;28;20031;-66
2022/06/04 04:56:40;;;;;;;5.25;3.70;;;;;;;;;;5085002;28;20051;-66
2022/06/04 04:59:05;;;;;;;5.95;4.00;;;;;;;;;;5085688;28;20525;-66
2022/06/04 05:01:31;;;;;;;4.72;3.78;;;;;;;;;;5085475;28;20566;-66
2022/06/04 05:03:56;;;;;;;8.55;3.80;;;;;;;;;;5085048;28;20028;-66
2022/06/04 05:06:22;;;;;;;6.63;4.03;;;;;;;;;;5085127;28;20050;-66
2022/06/04 05:08:49;;;;;;;8.77;4.07;;;;;;;;;;5085677;28;20048;-66
2022/06/04 05:11:20;;;;;;;5.70;4.20;;;;;;;;;;5082845;28;20516;-66
2022/06/04 05:13:49;;;;;;;5.88;4.10;;;;;;;;;;5074419;28;20039;-66
2022/06/04 05:16:20;;;;;;;5.22;4.10;;;;;;;;;;5086671;28;20517;-66
2022/06/04 05:18:46;;;;;;;6.63;3.55;;;;;;;;;;5084372;28;20020;-66
2022/06/04 05:21:19;;;;;;;6.32;3.55;;;;;;;;;;5083579;28;20430;-66
2022/06/04 05:23:45;;;;;;;8.57;4.00;;;;;;;;;;5079902;28;20032;-66
2022/06/04 05:26:10;;;;;;;5.80;4.07;;;;;;;;;;5077774;28;20032;-66
2022/06/04 05:28:35;;;;;;;8.43;4.05;;;;;;;;;;5086939;28;20101;-66
2022/06/04 05:31:02;;;;;;;4.68;3.72;;;;;;;;;;5081687;28;20072;-66
2022/06/04 05:33:28;;;;;;;7.30;4.22;;;;;;;;;;5082704;28;20025;-66
2022/06/04 05:35:53;;;;;;;6.95;4.10;;;;;;;;;;5085342;28;20491;-66
2022/06/04 05:38:19;;;;;;;8.40;4.28;;;;;;;;;;5084443;28;20188;-66
2022/06/04 05:40:44;;;;;;;6.10;3.97;;;;;;;;;;5083673;28;20081;-66
2022/06/04 05:43:09;;;;;;;5.05;3.75;;;;;;;;;;5079360;28;20039;-66
2022/06/04 05:45:35;;;;;;;9.52;4.40;;;;;;;;;;5081150;28;20024;-66
2022/06/04 05:48:00;;;;;;;5.63;3.80;;;;;;;;;;5082769;28;20036;-66
2022/06/04 05:50:26;;;;;;;7.93;4.30;;;;;;;;;;5079251;28;20032;-66
2022/06/04 05:52:51;;;;;;;7.30;4.28;;;;;;;;;;5077603;28;20668;-66
2022/06/04 05:55:17;;;;;;;7.20;4.28;;;;;;;;;;5084237;28;20712;-66
2022/06/04 05:57:43;;;;;;;8.02;4.15;;;;;;;;;;5085688;28;20660;-66
2022/06/04 06:00:10;;;;;;;8.63;3.95;;;;;;;;;;5078526;28;20047;-66
2022/06/04 06:02:36;;;;;;;6.00;3.75;;;;;;;;;;5078996;28;20040;-66
2022/06/04 06:05:03;;;;;;;6.40;4.25;;;;;;;;;;5077912;28;20040;-66
2022/06/04 06:07:29;;;;;;;6.00;4.85;;;;;;;;;;5078607;28;20569;-66
2022/06/04 06:09:54;;;;;;;5.45;4.07;;;;;;;;;;5078037;28;20032;-66
2022/06/04 06:12:20;;;;;;;6.53;4.18;;;;;;;;;;5070674;28;20516;-65
2022/06/04 06:14:45;;;;;;;7.65;4.22;;;;;;;;;;5081407;28;20513;-68
2022/06/04 06:17:10;;;;;;;6.57;4.40;;;;;;;;;;5081028;28;20027;-67
2022/06/04 06:19:36;;;;;;;7.60;4.55;;;;;;;;;;5078665;28;20086;-67
2022/06/04 06:22:01;;;;;;;6.47;4.43;;;;;;;;;;5072771;28;20084;-67
2022/06/04 06:24:26;;;;;;;7.15;4.70;;;;;;;;;;5080808;28;20119;-67
2022/06/04 06:26:58;;;;;;;6.20;4.15;;;;;;;;;;5076143;28;20040;-67
2022/06/04 06:29:27;;;;;;;6.00;4.43;;;;;;;;;;5082695;28;20029;-68
2022/06/04 06:31:53;;;;;;;5.85;4.63;;;;;;;;;;5086802;28;20713;-67
2022/06/04 06:34:20;;;;;;;6.57;4.50;;;;;;;;;;5088498;28;20044;-67
2022/06/04 06:36:46;;;;;;;6.70;4.57;;;;;;;;;;5085944;28;20024;-67
2022/06/04 06:39:11;;;;;;;8.20;4.80;;;;;;;;;;5080983;28;20040;-67
2022/06/04 06:41:37;;;;;;;8.15;4.93;;;;;;;;;;5086512;28;20567;-67
2022/06/04 06:44:03;;;;;;;7.53;4.90;;;;;;;;;;5089601;28;20070;-67
2022/06/04 06:46:41;;;;;;;8.55;5.20;;;;;;;;;;5089344;28;20051;-67
2022/06/04 06:49:11;;;;;;;7.80;4.85;;;;;;;;;;5090192;28;20713;-67
2022/06/04 06:51:42;;;;;;;7.18;5.30;;;;;;;;;;5081517;28;20019;-67
2022/06/04 06:54:08;;;;;;;7.18;4.90;;;;;;;;;;5083335;28;20582;-67
2022/06/04 06:56:37;;;;;;;10.32;5.13;;;;;;;;;;5089071;28;20060;-67
2022/06/04 06:59:03;;;;;;;7.50;4.82;;;;;;;;;;5078980;28;20460;-67
2022/06/04 07:01:29;;;;;;;12.20;5.07;;;;;;;;;;5087014;28;20036;-67
2022/06/04 07:03:55;;;;;;;8.00;5.20;;;;;;;;;;5086142;28;20023;-66
2022/06/04 07:06:38;;;;;;;5.97;4.85;;;;;;;;;;5086600;28;20028;-66
2022/06/04 07:09:06;;;;;;;6.20;4.57;;;;;;;;;;5083946;28;20512;-66
2022/06/04 07:11:32;;;;;;;8.63;4.93;;;;;;;;;;5109590;28;20176;-67
2022/06/04 07:13:57;;;;;;;10.15;4.82;;;;;;;;;;5093980;28;20129;-67
2022/06/04 07:16:23;;;;;;;9.07;5.40;;;;;;;;;;5082638;28;20039;-66
2022/06/04 07:18:48;;;;;;;7.28;5.00;;;;;;;;;;5079840;28;20093;-67
2022/06/04 07:21:14;;;;;;;7.78;5.15;;;;;;;;;;5079552;28;20189;-66
2022/06/04 07:23:39;;;;;;;10.23;5.47;;;;;;;;;;5081386;28;20519;-67
2022/06/04 07:26:06;;;;;;;9.02;5.15;;;;;;;;;;5082768;28;20032;-67
2022/06/04 07:28:37;;;;;;;7.97;4.75;;;;;;;;;;5085909;28;20040;-66
2022/06/04 07:31:04;;;;;;;8.23;5.45;;;;;;;;;;5081368;28;20055;-66
2022/06/04 07:33:30;;;;;;;6.90;4.80;;;;;;;;;;5078145;28;20076;-67
2022/06/04 07:35:56;;;;;;;7.90;5.18;;;;;;;;;;5077210;28;20044;-67
2022/06/04 07:38:21;;;;;;;9.43;5.43;;;;;;;;;;5077424;28;20063;-66
2022/06/04 07:40:47;;;;;;;11.43;5.75;;;;;;;;;;5081320;28;20086;-67
2022/06/04 07:43:13;;;;;;;8.23;5.70;;;;;;;;;;5080652;28;20067;-67
2022/06/04 07:45:39;;;;;;;9.27;5.78;;;;;;;;;;5074485;28;20060;-66
2022/06/04 07:48:05;;;;;;;8.65;5.32;;;;;;;;;;5077923;28;20036;-67
2022/06/04 07:50:31;;;;;;;9.13;6.22;;;;;;;;;;5083962;28;20126;-67
2022/06/04 07:52:57;;;;;;;10.93;5.57;;;;;;;;;;5082990;28;20127;-67
2022/06/04 07:55:23;;;;;;;11.38;5.60;;;;;;;;;;5083239;28;20070;-67
2022/06/04 07:57:49;;;;;;;7.82;5.20;;;;;;;;;;5083003;28;20059;-67
2022/06/04 08:00:14;;;;;;;12.23;5.45;;;;;;;;;;5083591;28;20039;-67
2022/06/04 08:02:42;;;;;;;9.57;5.65;;;;;;;;;;5084395;28;20040;-66
2022/06/04 08:05:09;;;;;;;8.35;6.05;;;;;;;;;;5081908;28;20036;-67
2022/06/04 08:07:36;;;;;;;12.65;6.30;;;;;;;;;;5083235;28;20075;-67
2022/06/04 08:10:02;;;;;;;9.25;5.57;;;;;;;;;;5076443;28;20036;-67
2022/06/04 08:12:32;;;;;;;10.27;6.60;;;;;;;;;;5086035;28;20028;-66
2022/06/04 08:14:57;;;;;;;10.85;5.72;;;;;;;;;;5082900;28;20396;-66
2022/06/04 08:17:23;;;;;;;7.68;5.60;;;;;;;;;;5083140;28;20777;-66
2022/06/04 08:19:49;;;;;;;9.68;6.32;;;;;;;;;;5082519;28;20082;-66
2022/06/04 08:22:14;;;;;;;8.57;5.82;;;;;;;;;;5081312;28;20556;-66
2022/06/04 08:24:40;;;;;;;14.13;6.25;;;;;;;;;;5085454;28;20032;-66
2022/06/04 08:27:06;;;;;;;9.27;6.35;;;;;;;;;;5083865;28;20124;-66
2022/06/04 08:29:34;;;;;;;11.73;6.38;;;;;;;;;;5085719;28;20424;-66
2022/06/04 08:32:01;;;;;;;10.15;6.38;;;;;;;;;;5081572;28;20055;-66
2022/06/04 08:34:27;;;;;;;12.57;6.60;;;;;;;;;;5082898;28;20714;-66
2022/06/04 08:36:52;;;;;;;11.60;6.93;;;;;;;;;;5083546;28;20030;-67
2022/06/04 08:39:18;;;;;;;9.68;6.60;;;;;;;;;;5084019;28;20031;-66
2022/06/04 08:42:02;;;;;;;10.57;6.40;;;;;;;;;;5076019;28;20097;-66
2022/06/04 08:44:38;;;;;;;9.40;6.32;;;;;;;;;;5077990;28;20604;-66
2022/06/04 08:47:28;;;;;;;12.05;8.07;;;;;;;;;;5081861;28;20048;-67
2022/06/04 08:50:06;;;;;;;12.93;6.65;;;;;;;;;;5074055;28;20043;-67
2022/06/04 08:52:39;;;;;;;9.48;6.43;;;;;;;;;;5082645;28;20080;-67
2022/06/04 08:58:24;;;;;;;9.65;6.28;;;;;;;;;;5082487;28;20066;-66
2022/06/04 09:00:54;;;;;;;12.30;7.30;;;;;;;;;;5080074;28;20035;-67
2022/06/04 09:03:28;;;;;;;12.80;7.10;;;;;;;;;;5079266;28;20020;-66
2022/06/04 09:06:15;;;;;;;13.07;7.40;;;;;;;;;;5081418;28;20048;-67
2022/06/04 09:08:47;;;;;;;13.63;7.47;;;;;;;;;;5076385;28;20076;-66
2022/06/04 09:11:29;;;;;;;12.43;7.25;;;;;;;;;;5085427;28;20038;-67
2022/06/04 09:14:03;;;;;;;10.63;7.10;;;;;;;;;;5074552;28;20409;-67
2022/06/04 09:16:36;;;;;;;11.75;6.78;;;;;;;;;;5072924;28;20044;-66
2022/06/04 09:19:04;;;;;;;12.38;7.22;;;;;;;;;;5076383;28;20074;-68
2022/06/04 09:21:38;;;;;;;11.98;7.53;;;;;;;;;;5084036;28;20052;-67
2022/06/04 09:24:04;;;;;;;14.68;7.60;;;;;;;;;;5078594;28;20106;-67
2022/06/04 09:26:32;;;;;;;10.68;8.07;;;;;;;;;;5082766;28;20536;-67
2022/06/04 09:29:13;;;;;;;14.02;9.43;;;;;;;;;;5086491;28;20121;-67
2022/06/04 09:31:52;;;;;;;13.57;7.80;;;;;;;;;;5083506;28;20638;-67
2022/06/04 09:34:23;;;;;;;10.15;7.28;;;;;;;;;;5075308;28;20101;-67
2022/06/04 09:36:49;;;;;;;12.27;7.63;;;;;;;;;;5086670;28;20520;-67
2022/06/04 09:39:24;;;;;;;11.18;7.53;;;;;;;;;;5076140;28;20535;-67
2022/06/04 09:41:55;;;;;;;13.20;8.32;;;;;;;;;;5075693;28;20048;-67
2022/06/04 09:44:22;;;;;;;11.32;7.75;;;;;;;;;;5076725;28;20123;-66
2022/06/04 09:46:51;;;;;;;13.95;8.05;;;;;;;;;;5086698;28;20040;-67
2022/06/04 09:49:28;;;;;;;11.65;8.27;;;;;;;;;;5067139;28;20028;-67
2022/06/04 09:51:54;;;;;;;12.43;7.35;;;;;;;;;;5080201;28;20756;-67
2022/06/04 09:54:37;;;;;;;13.10;8.48;;;;;;;;;;5077867;28;20025;-67
2022/06/04 09:57:05;;;;;;;11.88;8.70;;;;;;;;;;5076125;28;20447;-66
2022/06/04 09:59:34;;;;;;;14.73;9.20;;;;;;;;;;5089830;28;20139;-67
2022/06/04 10:02:09;;;;;;;11.27;8.55;;;;;;;;;;5077822;28;20040;-67
2022/06/04 10:04:39;;;;;;;14.30;8.80;;;;;;;;;;5078592;28;20071;-67
2022/06/04 10:07:11;;;;;;;12.18;8.35;;;;;;;;;;5085405;28;20052;-67
2022/06/04 10:09:55;;;;;;;19.27;11.50;;;;;;;;;;5084565;28;20706;-67
2022/06/04 10:15:26;;;;;;;11.27;8.52;;;;;;;;;;5090145;28;20450;-67
2022/06/04 10:18:31;;;;;;;11.85;8.15;;;;;;;;;;5085371;28;20131;-67
2022/06/04 10:20:56;;;;;;;13.60;9.45;;;;;;;;;;5050662;28;20069;-67
2022/06/04 10:23:22;;;;;;;16.08;9.43;;;;;;;;;;5083536;28;20120;-67
2022/06/04 10:26:25;;;;;;;15.05;10.48;;;;;;;;;;5085309;28;20132;-67
2022/06/04 10:29:03;;;;;;;13.43;9.50;;;;;;;;;;5103889;28;20039;-67
2022/06/04 10:31:48;;;;;;;15.25;9.43;;;;;;;;;;5110792;28;20040;-67
2022/06/04 10:34:35;;;;;;;13.90;9.23;;;;;;;;;;5080937;28;20040;-67
2022/06/04 10:37:21;;;;;;;12.23;8.05;;;;;;;;;;5086133;28;20031;-67
2022/06/04 10:40:17;;;;;;;14.30;8.88;;;;;;;;;;5076181;28;20016;-67
2022/06/04 10:42:59;;;;;;;13.98;9.35;;;;;;;;;;5086917;28;20019;-67
2022/06/04 10:46:14;;;;;;;12.95;8.95;;;;;;;;;;5076645;28;20539;-67
2022/06/04 10:48:55;;;;;;;12.48;8.88;;;;;;;;;;5077866;28;20036;-67
2022/06/04 10:51:25;;;;;;;14.20;9.55;;;;;;;;;;5095062;28;20548;-67
2022/06/04 10:54:00;;;;;;;12.63;8.90;;;;;;;;;;5090005;28;20071;-67
2022/06/04 10:56:34;;;;;;;15.20;9.65;;;;;;;;;;5079708;28;20071;-67
2022/06/04 10:59:09;;;;;;;14.40;9.73;;;;;;;;;;5088373;28;20025;-67
2022/06/04 11:01:54;;;;;;;14.30;9.23;;;;;;;;;;5084352;28;20036;-66
2022/06/04 11:04:44;;;;;;;14.23;8.65;;;;;;;;;;5085829;28;20108;-67
2022/06/04 11:07:16;;;;;;;16.02;10.20;;;;;;;;;;5078526;28;20106;-67
2022/06/04 11:09:41;;;;;;;14.23;9.10;;;;;;;;;;5088061;28;20028;-67
2022/06/04 11:12:30;;;;;;;13.82;9.45;;;;;;;;;;5083970;28;20046;-67
2022/06/04 11:15:03;;;;;;;15.73;8.48;;;;;;;;;;5081409;28;20713;-67
2022/06/04 11:17:34;;;;;;;;;;;;;;;;;;5084660;28;20028;-67
2022/06/04 11:20:10;;;;;;;15.85;9.88;;;;;;;;;;5066867;28;19927;-67
2022/06/04 11:22:38;;;;;;;13.35;9.45;;;;;;;;;;5083671;28;20043;-67
2022/06/04 11:25:24;;;;;;;18.15;9.65;;;;;;;;;;5095221;27;20094;-67
2022/06/04 11:27:58;;;;;;;12.13;8.73;;;;;;;;;;5081568;28;20055;-67
2022/06/04 11:30:57;;;;;;;13.48;9.65;;;;;;;;;;5081761;28;20107;-67
2022/06/04 11:33:36;;;;;;;16.10;10.98;;;;;;;;;;5053668;28;20085;-67
2022/06/04 11:36:07;;;;;;;13.35;9.02;;;;;;;;;;5084343;28;20112;-67
2022/06/04 11:38:58;;;;;;;14.70;9.70;;;;;;;;;;5083573;28;20127;-67
2022/06/04 11:41:42;;;;;;;13.63;9.35;;;;;;;;;;5079239;28;20382;-67
2022/06/04 11:44:35;;;;;;;13.30;9.63;;;;;;;;;;5072735;28;20028;-66
2022/06/04 11:47:48;;;;;;;13.35;9.05;;;;;;;;;;5077317;28;20435;-67
2022/06/04 11:50:32;;;;;;;13.57;9.38;;;;;;;;;;5070519;28;20159;-66
2022/06/04 11:52:58;;;;;;;11.05;8.77;;;;;;;;;;5076942;28;20044;-66
2022/06/04 11:55:33;;;;;;;13.80;8.80;;;;;;;;;;5081126;28;20042;-66
2022/06/04 11:58:25;;;;;;;13.70;9.05;;;;;;;;;;5081724;28;20077;-66
2022/06/04 12:00:53;;;;;;;15.15;9.95;;;;;;;;;;5081426;28;20027;-66
2022/06/04 12:03:37;;;;;;;12.70;10.18;;;;;;;;;;5084669;28;20121;-66
2022/06/04 12:06:30;;;;;;;14.98;9.38;;;;;;;;;;5080135;28;20039;-66
2022/06/04 12:09:22;;;;;;;13.45;9.25;;;;;;;;;;5078262;28;20043;-66
2022/06/04 12:12:08;;;;;;;14.18;9.60;;;;;;;;;;5074033;28;20117;-66
2022/06/04 12:14:47;;;;;;;13.75;9.30;;;;;;;;;;5085758;28;20531;-66
2022/06/04 12:17:18;;;;;;;13.95;10.05;;;;;;;;;;5078477;28;20047;-66
2022/06/04 12:25:41;;;;;;;11.45;9.18;;;;;;;;;;5080864;28;20705;-66
2022/06/04 12:28:28;;;;;;;13.35;9.68;;;;;;;;;;5080487;28;20109;-66
2022/06/04 12:30:55;;;;;;;16.98;10.32;;;;;;;;;;5080903;28;20412;-66
2022/06/04 12:33:28;;;;;;;14.95;9.73;;;;;;;;;;5081907;28;20016;-66
2022/06/04 12:36:02;;;;;;;;;;;;;;;;;;5082726;28;20075;-66
2022/06/04 12:38:28;;;;;;;13.45;10.00;;;;;;;;;;5084447;28;19916;-66
2022/06/04 12:41:06;;;;;;;16.00;10.88;;;;;;;;;;5081899;28;20544;-66
2022/06/04 12:43:36;;;;;;;15.15;9.77;;;;;;;;;;5080027;28;20044;-67
2022/06/04 12:46:13;;;;;;;14.52;10.02;;;;;;;;;;5076318;28;20115;-66
2022/06/04 12:48:53;;;;;;;14.48;10.43;;;;;;;;;;5079346;28;20093;-66
2022/06/04 12:51:25;;;;;;;14.82;10.02;;;;;;;;;;5085922;28;20315;-66
2022/06/04 12:53:55;;;;;;;12.65;9.77;;;;;;;;;;5082950;28;20036;-66
2022/06/04 12:56:34;;;;;;;16.17;10.48;;;;;;;;;;5080951;28;20044;-66
2022/06/04 12:59:02;;;;;;;15.15;9.95;;;;;;;;;;5082404;28;20115;-66
2022/06/04 13:01:30;;;;;;;13.80;10.52;;;;;;;;;;5084878;28;20390;-66
2022/06/04 13:04:11;;;;;;;12.57;9.43;;;;;;;;;;5082615;28;20024;-66
2022/06/04 13:07:00;;;;;;;16.63;10.63;;;;;;;;;;5080459;28;20024;-66
2022/06/04 13:09:47;;;;;;;15.63;8.90;;;;;;;;;;5088362;28;20421;-66
2022/06/04 13:12:47;;;;;;;17.17;10.18;;;;;;;;;;5080532;28;20449;-66
2022/06/04 13:15:28;;;;;;;12.48;10.02;;;;;;;;;;5085878;28;20051;-66
2022/06/04 13:17:53;;;;;;;14.02;10.55;;;;;;;;;;5078716;28;20036;-66
2022/06/04 13:20:33;;;;;;;14.85;9.98;;;;;;;;;;5081997;28;20056;-66
2022/06/04 13:23:19;;;;;;;13.93;10.23;;;;;;;;;;5080833;28;20071;-66
2022/06/04 13:25:50;;;;;;;17.90;11.35;;;;;;;;;;5081988;28;20044;-66
2022/06/04 13:28:32;;;;;;;12.93;10.13;;;;;;;;;;5077670;28;20047;-66
2022/06/04 13:31:00;;;;;;;12.82;8.65;;;;;;;;;;5080197;28;20032;-66
2022/06/04 13:33:25;;;;;;;10.38;7.85;;;;;;;;;;5079728;28;20047;-66
2022/06/04 13:35:53;;;;;;;12.52;8.57;;;;;;;;;;5086329;28;20544;-66
2022/06/04 13:38:31;;;;;;;12.43;9.02;;;;;;;;;;5084870;28;20587;-66
2022/06/04 13:44:19;;;;;;;11.65;8.73;;;;;;;;;;5082794;28;20085;-66
2022/06/04 13:46:45;;;;;;;12.95;8.50;;;;;;;;;;5077668;28;20044;-66
2022/06/04 13:49:23;;;;;;;13.45;8.50;;;;;;;;;;5079313;28;20052;-66
2022/06/04 13:51:55;;;;;;;10.93;7.22;;;;;;;;;;5085739;28;20115;-66
2022/06/04 13:54:54;;;;;;;11.40;8.30;;;;;;;;;;5084014;28;20103;-66
2022/06/04 13:57:51;;;;;;;10.85;8.63;;;;;;;;;;5078221;28;20071;-66
2022/06/04 14:00:24;;;;;;;11.82;8.88;;;;;;;;;;5086258;28;20043;-66
2022/06/04 14:02:54;;;;;;;11.02;8.88;;;;;;;;;;5091491;28;20032;-66
2022/06/04 14:08:07;;;;;;;9.30;8.05;;;;;;;;;;5096209;28;20113;-66
2022/06/04 14:10:33;;;;;;;9.35;8.43;;;;;;;;;;5092497;28;20046;-66
2022/06/04 14:13:33;;;;;;;9.35;8.30;;;;;;;;;;5083398;28;20032;-66
2022/06/04 14:16:16;;;;;;;10.35;7.90;;;;;;;;;;5093753;28;20045;-66
2022/06/04 14:18:56;;;;;;;11.88;7.97;;;;;;;;;;5090654;28;20024;-66
2022/06/04 14:21:29;;;;;;;13.63;8.63;;;;;;;;;;5087155;28;20083;-66
2022/06/04 14:24:22;;;;;;;10.13;7.95;;;;;;;;;;5080685;28;20047;-66
2022/06/04 14:27:13;;;;;;;8.35;7.55;;;;;;;;;;5081005;28;20032;-66
2022/06/04 14:29:41;;;;;;;9.05;8.15;;;;;;;;;;5077065;28;20315;-66
2022/06/04 14:32:14;;;;;;;11.85;8.25;;;;;;;;;;5078373;28;20036;-66
2022/06/04 14:34:46;;;;;;;9.32;7.82;;;;;;;;;;5086919;28;20101;-66
2022/06/04 14:37:12;;;;;;;11.53;8.10;;;;;;;;;;5089270;28;20028;-66
2022/06/04 14:39:42;;;;;;;12.38;7.72;;;;;;;;;;5090013;28;20459;-66
2022/06/04 14:42:19;;;;;;;9.75;7.70;;;;;;;;;;5092973;28;20390;-66
2022/06/04 14:45:09;;;;;;;8.40;7.53;;;;;;;;;;5075333;28;20043;-66
2022/06/04 14:47:51;;;;;;;8.93;8.02;;;;;;;;;;5084107;28;20040;-66
2022/06/04 14:50:42;;;;;;;10.82;8.10;;;;;;;;;;5077237;28;20093;-66
2022/06/04 14:53:09;;;;;;;10.55;7.50;;;;;;;;;;5071960;28;20048;-67
2022/06/04 14:55:44;;;;;;;9.60;7.65;;;;;;;;;;5084065;28;20032;-66
2022/06/04 14:58:42;;;;;;;11.10;8.25;;;;;;;;;;5086475;28;20492;-66
2022/06/04 15:01:25;;;;;;;9.95;7.80;;;;;;;;;;5055264;28;20035;-66
2022/06/04 15:04:00;;;;;;;9.20;7.78;;;;;;;;;;5085074;28;20032;-66
2022/06/04 15:06:34;;;;;;;8.68;7.60;;;;;;;;;;5083152;28;20552;-66
2022/06/04 15:09:05;;;;;;;7.90;6.93;;;;;;;;;;5078701;28;20051;-66
2022/06/04 15:11:49;;;;;;;7.38;6.60;;;;;;;;;;5076308;28;20090;-67
2022/06/04 15:14:51;;;;;;;7.45;6.75;;;;;;;;;;5082486;28;20044;-66
2022/06/04 15:17:38;;;;;;;7.75;7.05;;;;;;;;;;5078320;28;20040;-66
2022/06/04 15:20:37;;;;;;;6.90;6.20;;;;;;;;;;5076053;28;20532;-66
2022/06/04 15:23:27;;;;;;;8.35;7.07;;;;;;;;;;5081132;28;20055;-66
2022/06/04 15:26:22;;;;;;;9.13;6.78;;;;;;;;;;5088900;28;20591;-66
2022/06/04 15:34:48;;;;;;;9.07;7.28;;;;;;;;;;5077944;28;20584;-66
2022/06/04 15:37:32;;;;;;;7.93;7.07;;;;;;;;;;5086933;28;20039;-66
2022/06/04 15:40:06;;;;;;;8.43;7.47;;;;;;;;;;5083866;28;20043;-66
2022/06/04 15:42:50;;;;;;;8.40;7.60;;;;;;;;;;5085005;28;20046;-66
2022/06/04 15:45:31;;;;;;;9.80;7.38;;;;;;;;;;5082998;28;20415;-66